Time;durP1;ratioP1;P1;durP2;ratioP2;P2;SDS_P1;SDS_P2;PMS_P1;PMS_P2;Temp;Humidity;BMP_temperature;BMP_pressure;BME280_temperature;BME280_humidity;BME280_pressure;Samples;Min_cycle;Max_cycle;Signal;HPM_P1;HPM_P2
2022/05/21 03:02:21;;;;;;;0.60;0.50;;;19.10;67.10;;;;;;5277280;23;20509;-69
2022/05/21 03:04:48;;;;;;;0.60;0.50;;;19.10;67.10;;;;;;4973629;28;20760;-69
2022/05/21 03:07:14;;;;;;;0.67;0.50;;;19.10;67.00;;;;;;4973825;28;20516;-69
2022/05/21 03:12:25;;;;;;;0.70;0.60;;;19.20;66.90;;;;;;4973131;28;20453;-69
2022/05/21 03:14:52;;;;;;;0.67;0.57;;;19.10;67.00;;;;;;5093194;23;20552;-72
2022/05/21 03:17:18;;;;;;;0.60;0.50;;;19.10;66.90;;;;;;4974405;28;20437;-72
2022/05/21 03:19:46;;;;;;;0.70;0.60;;;19.00;67.00;;;;;;4974023;28;20976;-72
2022/05/21 03:22:13;;;;;;;0.70;0.70;;;18.80;66.90;;;;;;4975014;28;20477;-73
2022/05/21 03:24:40;;;;;;;0.70;0.60;;;18.50;67.50;;;;;;4978154;28;20469;-72
2022/05/21 03:27:07;;;;;;;0.70;0.60;;;18.50;67.20;;;;;;4978174;28;20453;-73
2022/05/21 03:29:34;;;;;;;0.70;0.57;;;18.40;67.50;;;;;;4978067;28;20455;-72
2022/05/21 03:32:01;;;;;;;0.70;0.60;;;18.40;67.60;;;;;;4978083;28;20445;-72
2022/05/21 03:34:28;;;;;;;0.70;0.60;;;18.30;67.70;;;;;;4978018;28;20461;-71
2022/05/21 03:36:56;;;;;;;0.80;0.70;;;18.30;67.80;;;;;;4978145;28;20449;-72
2022/05/21 03:39:23;;;;;;;0.70;0.60;;;18.30;67.50;;;;;;4977971;28;20450;-72
2022/05/21 03:41:50;;;;;;;0.70;0.70;;;18.20;67.60;;;;;;4977950;28;20485;-72
2022/05/21 03:44:17;;;;;;;0.70;0.50;;;18.00;68.10;;;;;;4977857;28;20481;-72
2022/05/21 03:46:43;;;;;;;0.70;0.60;;;18.00;68.40;;;;;;4977627;28;20813;-72
2022/05/21 03:49:10;;;;;;;0.70;0.60;;;18.00;68.50;;;;;;4977802;28;20453;-73
2022/05/21 03:51:38;;;;;;;0.70;0.60;;;17.90;68.60;;;;;;4977816;28;20449;-72
2022/05/21 03:54:06;;;;;;;0.70;0.60;;;17.80;68.60;;;;;;4977640;28;20564;-72
2022/05/21 03:56:32;;;;;;;0.70;0.60;;;17.80;68.80;;;;;;4977665;28;20859;-73
2022/05/21 03:58:59;;;;;;;0.70;0.60;;;17.60;68.80;;;;;;4977613;28;20450;-72
2022/05/21 04:01:26;;;;;;;0.70;0.60;;;17.70;68.90;;;;;;4977435;28;20532;-73
2022/05/21 04:03:54;;;;;;;0.70;0.67;;;17.70;68.70;;;;;;4977480;28;20528;-73
2022/05/21 04:06:21;;;;;;;0.70;0.60;;;17.60;68.90;;;;;;4977455;28;20456;-73
2022/05/21 04:08:49;;;;;;;0.70;0.70;;;17.60;69.20;;;;;;4977438;28;20810;-73
2022/05/21 04:11:17;;;;;;;0.70;0.60;;;17.50;69.20;;;;;;4977353;28;20485;-73
2022/05/21 04:13:44;;;;;;;0.63;0.50;;;17.60;69.20;;;;;;4977089;28;20481;-72
2022/05/21 04:16:10;;;;;;;0.70;0.50;;;17.80;68.90;;;;;;4977326;28;20434;-72
2022/05/21 04:18:37;;;;;;;0.70;0.70;;;17.90;68.50;;;;;;4977176;28;20481;-73
2022/05/21 04:21:04;;;;;;;0.70;0.67;;;18.00;67.90;;;;;;4977121;28;20482;-72
2022/05/21 04:23:30;;;;;;;0.70;0.60;;;18.00;67.80;;;;;;4977102;28;20466;-73
2022/05/21 04:25:57;;;;;;;0.70;0.60;;;17.90;67.90;;;;;;4977134;28;20446;-73
2022/05/21 04:28:25;;;;;;;0.70;0.60;;;17.80;68.00;;;;;;4977081;28;20450;-73
2022/05/21 04:30:51;;;;;;;0.70;0.60;;;17.80;68.40;;;;;;4976989;28;20450;-72
2022/05/21 04:33:18;;;;;;;0.70;0.70;;;17.90;68.00;;;;;;4976262;28;20525;-72
2022/05/21 04:38:28;;;;;;;0.70;0.60;;;17.60;68.80;;;;;;4970089;28;20441;-72
2022/05/21 04:40:55;;;;;;;0.83;0.60;;;17.70;69.00;;;;;;4976738;28;20485;-72
2022/05/21 04:43:22;;;;;;;0.70;0.60;;;17.90;68.40;;;;;;4976620;28;20501;-72
2022/05/21 04:45:49;;;;;;;0.67;0.60;;;18.10;68.00;;;;;;4976599;28;20497;-73
2022/05/21 04:48:16;;;;;;;0.60;0.60;;;18.20;67.20;;;;;;4976548;28;20504;-73
2022/05/21 04:50:43;;;;;;;0.70;0.70;;;18.10;67.20;;;;;;4976530;28;20450;-72
2022/05/21 04:53:09;;;;;;;0.80;0.70;;;18.00;67.20;;;;;;4976402;28;20505;-72
2022/05/21 04:55:36;;;;;;;0.70;0.60;;;17.90;67.10;;;;;;4976451;28;20446;-72
2022/05/21 04:58:03;;;;;;;0.63;0.50;;;17.70;68.00;;;;;;4976328;28;20450;-74
2022/05/21 05:00:30;;;;;;;0.70;0.60;;;17.40;68.30;;;;;;4976425;28;20453;-75
2022/05/21 05:02:58;;;;;;;0.70;0.60;;;17.60;69.20;;;;;;4976304;28;20486;-73
2022/05/21 05:05:25;;;;;;;0.80;0.70;;;17.50;68.70;;;;;;4976427;28;20505;-74
2022/05/21 05:07:52;;;;;;;0.70;0.60;;;17.50;68.50;;;;;;4976110;28;20513;-74
2022/05/21 05:10:19;;;;;;;0.70;0.60;;;17.80;67.90;;;;;;4976328;28;20450;-75
2022/05/21 05:12:46;;;;;;;0.67;0.60;;;17.90;68.10;;;;;;4976249;28;20446;-74
2022/05/21 05:15:12;;;;;;;0.80;0.60;;;18.10;66.30;;;;;;4975886;28;20521;-74
2022/05/21 05:17:39;;;;;;;0.70;0.60;;;18.10;67.30;;;;;;4976217;28;20516;-75
2022/05/21 05:20:08;;;;;;;0.70;0.60;;;18.40;66.00;;;;;;4976153;28;20870;-75
2022/05/21 05:22:35;;;;;;;0.70;0.60;;;18.40;66.20;;;;;;4976022;28;20489;-75
2022/05/21 05:25:04;;;;;;;0.70;0.67;;;18.60;65.40;;;;;;4975929;28;20473;-75
2022/05/21 05:27:30;;;;;;;0.70;0.60;;;18.80;64.70;;;;;;4975958;28;20462;-75
2022/05/21 05:29:57;;;;;;;0.70;0.60;;;19.10;64.20;;;;;;4975858;28;20457;-73
2022/05/21 05:32:24;;;;;;;0.60;0.60;;;19.10;63.00;;;;;;4975880;28;20477;-73
2022/05/21 05:34:50;;;;;;;0.60;0.60;;;19.10;62.70;;;;;;4975757;28;20499;-74
2022/05/21 05:37:18;;;;;;;0.70;0.60;;;19.00;62.80;;;;;;4975750;28;20500;-74
2022/05/21 05:39:45;;;;;;;0.70;0.60;;;19.10;62.80;;;;;;4975736;28;20445;-73
2022/05/21 05:42:12;;;;;;;0.80;0.70;;;19.20;62.60;;;;;;4975572;28;20554;-73
2022/05/21 05:44:39;;;;;;;0.70;0.50;;;19.30;61.90;;;;;;4974957;28;20480;-73
2022/05/21 05:47:06;;;;;;;0.97;0.60;;;19.40;61.00;;;;;;4975476;28;20505;-74
2022/05/21 05:49:33;;;;;;;0.67;0.50;;;19.50;60.50;;;;;;4975541;28;20450;-73
2022/05/21 05:51:59;;;;;;;0.70;0.60;;;19.50;60.50;;;;;;4975517;28;20446;-74
2022/05/21 05:54:27;;;;;;;0.80;0.63;;;19.80;59.70;;;;;;4975408;28;20461;-73
2022/05/21 05:56:54;;;;;;;0.60;0.50;;;20.00;59.60;;;;;;4975644;28;20446;-73
2022/05/21 06:04:50;;;;;;;0.60;0.50;;;20.40;58.00;;;;;;4975007;28;20449;-73
2022/05/21 06:07:16;;;;;;;0.70;0.50;;;20.60;56.80;;;;;;4975202;28;20533;-75
2022/05/21 06:09:44;;;;;;;0.70;0.60;;;20.70;57.10;;;;;;4975151;28;20500;-73
2022/05/21 06:12:11;;;;;;;0.70;0.50;;;20.60;56.90;;;;;;4974741;28;20981;-73
2022/05/21 06:14:38;;;;;;;0.70;0.60;;;20.70;56.30;;;;;;4974880;28;20489;-73
2022/05/21 06:17:05;;;;;;;1.07;0.60;;;20.80;56.30;;;;;;4975030;28;20504;-73
2022/05/21 06:19:32;;;;;;;0.60;0.50;;;21.00;56.40;;;;;;4974945;28;20532;-73
2022/05/21 06:21:59;;;;;;;0.80;0.60;;;21.10;55.70;;;;;;4974944;28;20544;-73
2022/05/21 06:24:27;;;;;;;0.73;0.60;;;21.20;53.20;;;;;;4974872;28;20466;-73
2022/05/21 06:26:56;;;;;;;0.60;0.50;;;21.20;54.50;;;;;;4974570;28;20882;-71
2022/05/21 06:29:22;;;;;;;0.60;0.50;;;21.30;54.30;;;;;;4974805;28;20446;-72
2022/05/21 06:31:49;;;;;;;0.67;0.50;;;21.50;54.60;;;;;;4974840;28;20509;-72
2022/05/21 06:34:16;;;;;;;0.60;0.50;;;21.60;54.10;;;;;;4974763;28;20478;-73
2022/05/21 06:36:42;;;;;;;0.70;0.60;;;21.70;54.20;;;;;;4974470;28;20945;-73
2022/05/21 06:39:09;;;;;;;0.67;0.60;;;21.80;52.90;;;;;;4974373;28;20508;-73
2022/05/21 06:41:36;;;;;;;0.70;0.60;;;21.90;53.70;;;;;;4974571;28;20485;-73
2022/05/21 06:44:04;;;;;;;0.60;0.50;;;21.90;52.90;;;;;;4974550;28;20525;-73
2022/05/21 06:46:31;;;;;;;0.77;0.50;;;21.90;53.00;;;;;;4974416;28;20937;-73
2022/05/21 06:48:57;;;;;;;0.70;0.50;;;22.00;52.50;;;;;;4974626;28;20442;-72
2022/05/21 06:51:24;;;;;;;0.70;0.60;;;22.00;52.50;;;;;;4974552;28;20504;-72
2022/05/21 06:53:51;;;;;;;0.70;0.60;;;22.10;52.20;;;;;;4974458;28;20521;-73
2022/05/21 06:56:18;;;;;;;0.60;0.50;;;22.20;52.60;;;;;;4974265;28;20454;-73
2022/05/21 06:58:45;;;;;;;0.70;0.60;;;22.30;52.30;;;;;;4974101;28;20461;-73
2022/05/21 07:01:14;;;;;;;0.60;0.50;;;22.10;52.60;;;;;;4974579;28;20549;-74
2022/05/21 07:03:40;;;;;;;0.70;0.57;;;22.20;52.40;;;;;;4975201;28;20515;-74
2022/05/21 07:08:51;;;;;;;0.60;0.50;;;22.10;53.90;;;;;;4975378;28;20472;-75
2022/05/21 07:11:18;;;;;;;0.60;0.50;;;22.20;54.30;;;;;;4975857;28;20454;-75
2022/05/21 07:13:45;;;;;;;0.63;0.50;;;22.40;54.60;;;;;;4974972;28;20488;-74
2022/05/21 07:16:13;;;;;;;0.70;0.60;;;22.60;53.30;;;;;;4975197;28;20415;-73
2022/05/21 07:18:40;;;;;;;0.67;0.53;;;22.70;51.80;;;;;;4975285;28;20458;-73
2022/05/21 07:21:10;;;;;;;0.60;0.50;;;22.40;52.70;;;;;;4975270;28;20445;-73
2022/05/21 07:23:37;;;;;;;0.60;0.50;;;22.50;52.70;;;;;;4974977;28;20505;-73
2022/05/21 07:26:04;;;;;;;0.80;0.77;;;22.60;52.40;;;;;;4975762;28;20458;-73
2022/05/21 07:28:31;;;;;;;0.70;0.60;;;22.70;53.10;;;;;;4975089;28;20466;-73
2022/05/21 07:30:58;;;;;;;0.60;0.50;;;22.70;52.40;;;;;;4975558;28;20454;-73
2022/05/21 07:33:26;;;;;;;0.70;0.60;;;22.70;51.70;;;;;;4974564;28;20470;-72
2022/05/21 07:35:52;;;;;;;0.60;0.50;;;22.80;52.20;;;;;;4974845;28;20458;-73
2022/05/21 07:38:19;;;;;;;0.60;0.50;;;22.70;51.20;;;;;;4975112;28;20450;-73
2022/05/21 07:40:47;;;;;;;0.63;0.50;;;22.30;51.70;;;;;;4974948;28;20512;-73
2022/05/21 07:43:16;;;;;;;0.90;0.50;;;22.60;51.80;;;;;;4974767;28;20482;-73
2022/05/21 07:45:44;;;;;;;0.63;0.57;;;22.30;51.00;;;;;;4975059;28;20438;-73
2022/05/21 07:48:13;;;;;;;0.80;0.60;;;22.50;52.40;;;;;;4975223;28;20464;-73
2022/05/21 07:50:42;;;;;;;0.70;0.50;;;22.70;52.20;;;;;;4975130;28;20489;-72
2022/05/21 07:53:12;;;;;;;0.60;0.50;;;22.80;51.90;;;;;;4974558;28;20454;-74
2022/05/21 07:55:43;;;;;;;0.70;0.60;;;22.80;50.80;;;;;;4975762;28;20454;-73
2022/05/21 07:58:09;;;;;;;0.93;0.50;;;22.70;50.70;;;;;;4974474;28;20454;-73
2022/05/21 08:00:37;;;;;;;0.60;0.50;;;22.60;51.80;;;;;;4974617;28;20458;-73
2022/05/21 08:03:04;;;;;;;0.60;0.50;;;22.60;50.90;;;;;;4974435;28;20529;-72
2022/05/21 08:05:30;;;;;;;0.60;0.50;;;22.60;51.80;;;;;;4974998;28;20450;-72
2022/05/21 08:07:59;;;;;;;0.80;0.50;;;22.80;52.10;;;;;;4975963;28;20454;-73
2022/05/21 08:10:25;;;;;;;0.60;0.50;;;22.50;51.40;;;;;;4978473;28;20545;-72
2022/05/21 08:12:53;;;;;;;0.80;0.60;;;22.30;50.70;;;;;;4977248;28;20442;-72
2022/05/21 08:15:21;;;;;;;0.60;0.50;;;22.00;52.10;;;;;;4976873;28;20487;-73
2022/05/21 08:17:48;;;;;;;0.60;0.50;;;22.20;52.00;;;;;;4978278;28;20454;-73
2022/05/21 08:20:15;;;;;;;0.70;0.50;;;22.30;52.00;;;;;;4977890;28;20453;-72
2022/05/21 08:28:09;;;;;;;0.60;0.50;;;22.90;50.50;;;;;;4955915;28;20438;-71
2022/05/21 08:30:36;;;;;;;0.70;0.60;;;22.70;51.00;;;;;;4977270;28;20446;-70
2022/05/21 08:33:05;;;;;;;0.70;0.50;;;22.90;52.60;;;;;;4977650;28;20446;-71
2022/05/21 08:35:32;;;;;;;0.60;0.50;;;23.10;50.40;;;;;;4977461;28;20458;-70
2022/05/21 08:37:59;;;;;;;0.70;0.60;;;23.20;49.90;;;;;;4977362;28;20446;-71
2022/05/21 08:40:40;;;;;;;0.60;0.50;;;23.00;49.40;;;;;;4977661;28;20457;-70
2022/05/21 08:43:16;;;;;;;0.60;0.50;;;22.60;49.80;;;;;;4977416;28;20474;-74
2022/05/21 08:45:52;;;;;;;0.60;0.50;;;22.50;50.90;;;;;;4977209;28;20442;-73
2022/05/21 08:48:20;;;;;;;0.60;0.50;;;22.70;50.70;;;;;;4977370;28;20449;-72
2022/05/21 08:50:52;;;;;;;0.70;0.60;;;22.80;51.20;;;;;;4977124;28;20446;-73
2022/05/21 08:53:23;;;;;;;0.60;0.50;;;23.10;51.10;;;;;;4977116;28;20477;-72
2022/05/21 08:55:53;;;;;;;0.70;0.60;;;23.30;51.10;;;;;;4977066;28;20438;-73
2022/05/21 08:58:27;;;;;;;0.70;0.57;;;23.20;52.40;;;;;;4976551;28;20434;-72
2022/05/21 09:00:56;;;;;;;0.60;0.50;;;23.10;50.40;;;;;;4976489;28;20437;-72
2022/05/21 09:03:26;;;;;;;0.70;0.50;;;23.00;48.90;;;;;;4976261;28;20841;-74
2022/05/21 09:06:04;;;;;;;0.60;0.50;;;23.00;50.20;;;;;;4976279;28;20933;-72
2022/05/21 09:08:37;;;;;;;0.60;0.50;;;23.00;48.70;;;;;;4976379;28;20426;-72
2022/05/21 09:11:13;;;;;;;0.60;0.50;;;22.80;49.10;;;;;;4976355;28;20434;-72
2022/05/21 09:13:44;;;;;;;0.60;0.50;;;22.80;49.60;;;;;;5080051;23;20485;-72
2022/05/21 09:18:57;;;;;;;0.80;0.50;;;23.40;51.60;;;;;;4957249;29;20407;-74
2022/05/21 09:21:26;;;;;;;0.60;0.50;;;23.40;49.50;;;;;;4956149;28;20473;-73
2022/05/21 09:23:54;;;;;;;0.67;0.57;;;23.40;50.90;;;;;;4957826;29;20545;-71
2022/05/21 09:26:25;;;;;;;0.70;0.60;;;23.60;49.20;;;;;;4959004;29;20477;-72
2022/05/21 09:28:52;;;;;;;0.60;0.50;;;23.40;48.60;;;;;;4959038;28;20455;-71
2022/05/21 09:31:29;;;;;;;0.70;0.60;;;23.80;48.30;;;;;;4959059;29;20510;-71
2022/05/21 09:33:56;;;;;;;0.60;0.50;;;24.00;48.60;;;;;;4958694;29;20470;-73
2022/05/21 09:36:33;;;;;;;0.70;0.50;;;24.20;47.00;;;;;;4958151;28;20482;-72
2022/05/21 09:39:00;;;;;;;0.60;0.50;;;24.20;47.10;;;;;;4957814;29;20485;-71
2022/05/21 09:41:32;;;;;;;0.70;0.53;;;24.40;47.40;;;;;;4957933;29;20473;-72
2022/05/21 09:47:07;;;;;;;0.60;0.50;;;24.50;48.50;;;;;;4958858;29;20407;-72
2022/05/21 09:49:34;;;;;;;0.60;0.50;;;24.60;46.10;;;;;;4958461;29;20486;-71
2022/05/21 09:52:03;;;;;;;0.60;0.50;;;24.10;49.30;;;;;;4958767;29;20482;-71
2022/05/21 09:54:35;;;;;;;0.63;0.50;;;24.20;49.80;;;;;;4958651;29;20467;-73
2022/05/21 09:57:04;;;;;;;1.27;0.70;;;24.40;49.50;;;;;;4958026;29;20439;-73
2022/05/21 09:59:33;;;;;;;0.60;0.50;;;24.50;48.20;;;;;;4956999;28;20482;-73
2022/05/21 10:02:02;;;;;;;0.60;0.50;;;24.60;49.10;;;;;;4956861;29;20491;-73
2022/05/21 10:04:39;;;;;;;0.63;0.50;;;24.70;46.80;;;;;;4956543;29;20896;-77
2022/05/21 10:10:58;;;;;;;0.70;0.53;;;24.40;46.50;;;;;;4956890;29;20439;-73
2022/05/21 10:12:53;;;;;;;0.60;0.50;;;24.70;44.40;;;;;;4956712;29;20946;-74
2022/05/21 10:15:25;;;;;;;2.00;1.30;;;24.80;45.80;;;;;;4956050;29;20483;-72
2022/05/21 10:17:59;;;;;;;1.27;0.50;;;24.90;46.40;;;;;;4956673;29;20522;-72
2022/05/21 10:20:32;;;;;;;0.70;0.60;;;25.10;45.80;;;;;;4956477;29;20442;-72
2022/05/21 10:23:05;;;;;;;0.70;0.50;;;25.30;45.80;;;;;;4956549;29;20474;-72
2022/05/21 10:25:45;;;;;;;0.60;0.50;;;25.30;44.20;;;;;;4957177;29;20982;-72
2022/05/21 10:28:44;;;;;;;0.80;0.50;;;25.30;44.30;;;;;;4956587;29;20435;-72
2022/05/21 10:31:29;;;;;;;0.60;0.50;;;25.50;45.70;;;;;;4955447;28;20459;-72
2022/05/21 10:34:08;;;;;;;0.60;0.50;;;25.50;45.10;;;;;;4956421;29;20526;-71
2022/05/21 10:36:46;;;;;;;0.60;0.50;;;25.30;49.20;;;;;;4956359;29;20442;-68
2022/05/21 10:39:35;;;;;;;0.60;0.50;;;25.10;47.50;;;;;;4956015;29;20439;-69
2022/05/21 10:42:30;;;;;;;0.70;0.70;;;24.90;49.20;;;;;;4955509;29;20776;-70
2022/05/21 10:45:10;;;;;;;0.80;0.80;;;25.10;46.20;;;;;;4955342;28;20471;-70
2022/05/21 10:48:04;;;;;;;0.70;0.60;;;25.30;46.10;;;;;;4955267;29;20494;-70
2022/05/21 10:50:33;;;;;;;0.70;0.50;;;25.50;46.40;;;;;;4955300;29;20439;-70
2022/05/21 10:53:28;;;;;;;0.70;0.60;;;25.50;47.20;;;;;;4954869;29;20931;-71
2022/05/21 10:56:03;;;;;;;0.80;0.50;;;25.50;47.40;;;;;;4955301;29;20502;-70
2022/05/21 10:58:50;;;;;;;0.60;0.50;;;25.30;48.70;;;;;;4955202;29;20438;-70
2022/05/21 11:01:26;;;;;;;0.60;0.50;;;25.30;48.20;;;;;;4955294;29;20442;-70
2022/05/21 11:04:25;;;;;;;0.70;0.50;;;25.60;46.10;;;;;;4955572;29;20491;-71
2022/05/21 11:07:12;;;;;;;0.60;0.50;;;25.80;46.90;;;;;;4955484;28;20529;-71
2022/05/21 11:09:47;;;;;;;0.70;0.50;;;26.00;46.90;;;;;;4955743;29;20430;-70
2022/05/21 11:12:17;;;;;;;0.60;0.50;;;26.10;45.60;;;;;;4955803;29;20443;-71
2022/05/21 11:14:51;;;;;;;0.70;0.50;;;26.30;44.90;;;;;;4955447;29;20541;-72
2022/05/21 11:17:29;;;;;;;0.70;0.50;;;26.50;44.70;;;;;;4956463;29;20439;-71
2022/05/21 11:20:00;;;;;;;0.80;0.60;;;26.60;45.70;;;;;;4955713;29;20493;-71
2022/05/21 11:22:42;;;;;;;0.63;0.50;;;26.60;43.00;;;;;;4955668;29;20450;-70
2022/05/21 11:25:17;;;;;;;0.60;0.50;;;26.50;44.00;;;;;;4955672;28;20467;-72
2022/05/21 11:27:49;;;;;;;0.70;0.50;;;26.50;45.90;;;;;;4955607;29;20446;-71
2022/05/21 11:30:19;;;;;;;0.60;0.50;;;26.70;46.50;;;;;;4955381;29;20486;-71
2022/05/21 11:38:30;;;;;;;0.70;0.50;;;27.00;44.50;;;;;;4955193;29;20918;-70
2022/05/21 11:46:52;;;;;;;0.60;0.50;;;26.80;46.10;;;;;;4958622;29;20446;-71
2022/05/21 11:49:49;;;;;;;0.70;0.50;;;27.00;45.70;;;;;;4958478;28;20447;-70
2022/05/21 11:52:50;;;;;;;0.70;0.50;;;27.20;45.30;;;;;;4958480;29;20486;-70
2022/05/21 11:55:21;;;;;;;0.60;0.50;;;27.30;45.50;;;;;;4957948;29;20954;-71
2022/05/21 11:57:50;;;;;;;0.70;0.60;;;27.20;45.60;;;;;;4958190;29;20439;-70
2022/05/21 12:00:57;;;;;;;0.80;0.60;;;27.10;44.40;;;;;;4958081;29;20446;-70
2022/05/21 12:03:25;;;;;;;0.60;0.50;;;27.20;44.90;;;;;;4952949;29;20474;-71
2022/05/21 12:06:14;;;;;;;0.60;0.50;;;27.10;45.10;;;;;;4957948;28;20451;-71
2022/05/21 12:08:48;;;;;;;0.60;0.50;;;27.00;45.30;;;;;;4957961;29;20439;-70
2022/05/21 12:11:44;;;;;;;0.70;0.60;;;27.10;45.30;;;;;;4957956;29;20438;-70
2022/05/21 12:14:20;;;;;;;0.70;0.50;;;27.40;44.70;;;;;;4951200;28;20848;-70
2022/05/21 12:16:51;;;;;;;0.60;0.50;;;27.30;44.70;;;;;;4957789;29;20510;-70
2022/05/21 12:19:50;;;;;;;0.60;0.60;;;27.30;44.70;;;;;;4958588;29;20470;-71
2022/05/21 12:22:37;;;;;;;0.70;0.50;;;27.40;44.10;;;;;;4948108;28;20553;-71
2022/05/21 12:25:05;;;;;;;0.70;0.50;;;27.40;42.50;;;;;;4957658;28;20672;-70
2022/05/21 12:27:33;;;;;;;0.60;0.57;;;27.10;45.20;;;;;;4957578;29;20572;-71
2022/05/21 12:30:02;;;;;;;0.60;0.50;;;27.30;44.80;;;;;;4957702;29;20505;-71
2022/05/21 12:32:32;;;;;;;0.60;0.60;;;27.20;43.90;;;;;;4957573;29;20454;-70
2022/05/21 12:35:27;;;;;;;0.70;0.60;;;27.30;42.90;;;;;;4957391;29;20530;-71
2022/05/21 12:38:05;;;;;;;0.70;0.50;;;27.40;43.50;;;;;;4957501;29;20466;-70
2022/05/21 12:40:41;;;;;;;0.70;0.50;;;27.60;44.70;;;;;;4957448;29;20435;-70
2022/05/21 12:43:11;;;;;;;0.80;0.60;;;27.60;44.90;;;;;;4957286;29;20435;-71
2022/05/21 12:45:43;;;;;;;0.70;0.50;;;27.70;44.30;;;;;;4957172;29;20518;-70
2022/05/21 12:48:13;;;;;;;0.60;0.50;;;27.70;44.10;;;;;;4957295;29;20440;-70
2022/05/21 12:50:48;;;;;;;0.70;0.57;;;27.70;41.30;;;;;;4957291;28;20454;-71
2022/05/21 12:53:23;;;;;;;0.60;0.50;;;27.60;41.40;;;;;;4957154;28;20454;-70
2022/05/21 12:56:00;;;;;;;0.90;0.60;;;27.70;41.10;;;;;;4955804;28;20439;-70
2022/05/21 12:58:27;;;;;;;0.60;0.60;;;27.90;42.80;;;;;;4956517;28;20977;-70
2022/05/21 13:00:55;;;;;;;0.60;0.50;;;27.90;42.30;;;;;;4957009;29;20518;-71
2022/05/21 13:03:24;;;;;;;0.60;0.50;;;27.80;41.50;;;;;;4956476;29;20451;-71
2022/05/21 13:05:54;;;;;;;0.80;0.50;;;27.80;42.60;;;;;;4956560;29;20827;-70
2022/05/21 13:08:23;;;;;;;0.60;0.50;;;27.80;43.00;;;;;;4956694;29;20455;-70
2022/05/21 13:11:00;;;;;;;0.80;0.50;;;28.00;43.00;;;;;;4956513;29;20453;-71
2022/05/21 13:13:28;;;;;;;0.60;0.50;;;28.30;41.80;;;;;;4956476;29;20522;-71
2022/05/21 13:15:58;;;;;;;0.60;0.60;;;28.30;42.30;;;;;;4956676;29;20554;-71
2022/05/21 13:18:35;;;;;;;0.60;0.50;;;28.30;41.60;;;;;;4956627;29;20438;-70
2022/05/21 13:21:11;;;;;;;0.67;0.50;;;28.30;42.30;;;;;;4956336;29;20441;-71
2022/05/21 13:24:03;;;;;;;0.60;0.50;;;28.60;41.40;;;;;;4956256;28;20471;-71
2022/05/21 13:26:32;;;;;;;0.67;0.50;;;28.20;42.20;;;;;;4956351;28;20446;-70
2022/05/21 13:29:14;;;;;;;0.60;0.50;;;27.50;44.30;;;;;;4956334;29;20498;-71
2022/05/21 13:31:41;;;;;;;0.70;0.50;;;27.40;41.60;;;;;;4955993;29;20455;-71
2022/05/21 13:34:08;;;;;;;0.70;0.60;;;27.60;40.70;;;;;;4955700;29;20832;-71
2022/05/21 13:36:35;;;;;;;0.90;0.60;;;27.80;41.40;;;;;;4956128;29;20446;-71
2022/05/21 13:39:05;;;;;;;1.27;0.60;;;28.00;41.20;;;;;;4956130;29;20501;-69
2022/05/21 13:41:36;;;;;;;0.60;0.50;;;28.10;41.30;;;;;;4955886;29;20441;-71
2022/05/21 13:44:08;;;;;;;0.60;0.50;;;28.20;40.20;;;;;;4956094;29;20913;-71
2022/05/21 13:46:37;;;;;;;0.60;0.50;;;28.20;41.10;;;;;;4956075;29;20439;-71
2022/05/21 13:49:13;;;;;;;0.67;0.50;;;28.10;38.80;;;;;;4956021;29;20502;-71
2022/05/21 13:51:40;;;;;;;0.60;0.50;;;28.30;40.00;;;;;;4955938;29;20435;-71
2022/05/21 13:54:10;;;;;;;1.00;0.50;;;28.10;41.50;;;;;;4955766;29;21006;-71
2022/05/21 13:56:39;;;;;;;0.70;0.60;;;27.90;40.90;;;;;;4955812;29;20442;-70
2022/05/21 13:59:16;;;;;;;0.70;0.60;;;27.90;39.90;;;;;;4956121;29;20455;-70
2022/05/21 14:01:45;;;;;;;0.60;0.50;;;28.00;40.90;;;;;;4955720;29;20442;-71
2022/05/21 14:04:14;;;;;;;0.90;0.57;;;28.30;41.20;;;;;;4955554;29;20491;-70
2022/05/21 14:06:45;;;;;;;0.60;0.50;;;28.40;40.10;;;;;;4955630;28;20455;-71
2022/05/21 14:09:20;;;;;;;0.70;0.60;;;28.60;40.10;;;;;;4955471;29;20435;-70
2022/05/21 14:11:52;;;;;;;0.60;0.50;;;28.70;40.00;;;;;;4955795;29;20463;-70
2022/05/21 14:14:22;;;;;;;0.70;0.60;;;28.70;39.50;;;;;;4955247;29;20478;-71
2022/05/21 14:16:49;;;;;;;0.70;0.50;;;28.80;40.60;;;;;;4955536;29;20506;-70
2022/05/21 14:19:26;;;;;;;0.60;0.50;;;28.80;39.40;;;;;;4955282;29;20942;-71
2022/05/21 14:22:00;;;;;;;0.67;0.50;;;28.90;40.00;;;;;;4955505;29;20439;-71
2022/05/21 14:24:31;;;;;;;0.70;0.60;;;28.90;39.20;;;;;;4955326;29;20564;-70
2022/05/21 14:26:59;;;;;;;0.90;0.50;;;28.80;39.80;;;;;;4955571;28;20838;-70
2022/05/21 14:29:38;;;;;;;0.60;0.50;;;29.00;39.20;;;;;;4955156;28;20818;-70
2022/05/21 14:32:19;;;;;;;0.60;0.50;;;28.80;39.10;;;;;;4955512;29;20490;-70
2022/05/21 14:34:48;;;;;;;0.60;0.53;;;28.90;38.20;;;;;;4954940;29;20467;-71
2022/05/21 14:37:23;;;;;;;0.70;0.60;;;28.80;39.50;;;;;;4955197;29;20447;-69
2022/05/21 14:39:51;;;;;;;1.67;0.60;;;28.80;39.60;;;;;;4955330;28;20450;-70
2022/05/21 14:42:18;;;;;;;0.70;0.50;;;28.80;38.70;;;;;;4955372;29;20455;-70
2022/05/21 14:44:45;;;;;;;0.60;0.50;;;28.60;38.80;;;;;;4955194;29;20494;-70
2022/05/21 14:52:52;;;;;;;0.60;0.50;;;28.30;40.20;;;;;;4954833;29;20506;-70
2022/05/21 14:55:21;;;;;;;0.80;0.70;;;28.30;40.00;;;;;;4954943;29;20467;-70
2022/05/21 14:57:49;;;;;;;0.60;0.50;;;28.30;38.90;;;;;;4954872;29;20549;-70
2022/05/21 15:00:17;;;;;;;0.60;0.57;;;28.30;38.60;;;;;;4955003;29;20521;-70
2022/05/21 15:02:43;;;;;;;0.60;0.50;;;28.20;37.70;;;;;;4954801;29;20490;-70
2022/05/21 15:05:11;;;;;;;0.80;0.60;;;28.20;39.10;;;;;;4954826;29;20491;-70
2022/05/21 15:07:46;;;;;;;0.67;0.50;;;28.40;39.80;;;;;;4955134;29;20576;-70
2022/05/21 15:10:13;;;;;;;0.70;0.70;;;28.50;40.40;;;;;;4955124;29;20438;-71
2022/05/21 15:12:42;;;;;;;0.60;0.50;;;28.60;40.80;;;;;;4955065;29;20543;-70
2022/05/21 15:15:10;;;;;;;0.70;0.53;;;28.50;40.20;;;;;;5085841;23;20561;-72
2022/05/21 15:17:37;;;;;;;0.70;0.60;;;28.20;40.00;;;;;;4974528;28;20446;-72
2022/05/21 15:20:04;;;;;;;0.70;0.50;;;28.00;40.10;;;;;;4978242;28;20500;-72
2022/05/21 15:22:35;;;;;;;0.60;0.57;;;27.70;39.20;;;;;;4978092;28;20874;-72
2022/05/21 15:25:04;;;;;;;0.60;0.50;;;27.50;40.40;;;;;;4978215;28;20481;-72
2022/05/21 15:27:31;;;;;;;0.73;0.50;;;27.10;40.80;;;;;;4978262;28;20458;-72
2022/05/21 15:29:59;;;;;;;0.60;0.50;;;26.90;41.20;;;;;;4978219;28;20450;-72
2022/05/21 15:32:26;;;;;;;0.70;0.60;;;26.80;41.60;;;;;;4977978;28;21066;-72
2022/05/21 15:34:53;;;;;;;0.70;0.60;;;26.40;42.10;;;;;;4978086;28;20468;-72
2022/05/21 15:37:21;;;;;;;0.70;0.50;;;26.20;42.80;;;;;;4978141;28;20549;-72
2022/05/21 15:39:48;;;;;;;0.70;0.60;;;26.20;43.00;;;;;;4977751;28;20864;-72
2022/05/21 15:42:16;;;;;;;0.60;0.50;;;26.00;43.40;;;;;;4978048;28;20449;-72
2022/05/21 15:44:44;;;;;;;0.70;0.60;;;26.00;43.20;;;;;;4977534;28;21011;-72
2022/05/21 15:47:12;;;;;;;0.60;0.50;;;25.90;42.90;;;;;;4977932;28;20548;-72
2022/05/21 15:49:39;;;;;;;0.70;0.60;;;26.00;42.70;;;;;;4977904;28;20536;-72
2022/05/21 15:52:07;;;;;;;0.70;0.50;;;25.90;43.80;;;;;;4977619;28;20484;-71
2022/05/21 15:54:34;;;;;;;0.67;0.60;;;26.00;44.70;;;;;;4977779;28;20524;-72
2022/05/21 15:57:01;;;;;;;0.60;0.50;;;26.00;44.60;;;;;;4977775;28;20533;-72
2022/05/21 15:59:28;;;;;;;0.60;0.50;;;26.10;45.60;;;;;;4977745;28;20572;-72
2022/05/21 16:01:54;;;;;;;0.60;0.50;;;26.00;45.00;;;;;;4977694;28;20504;-72
2022/05/21 16:04:22;;;;;;;1.03;0.70;;;26.10;44.90;;;;;;4977505;28;20552;-72
2022/05/21 16:06:49;;;;;;;0.70;0.50;;;26.00;44.40;;;;;;4977954;28;20516;-72
2022/05/21 16:09:17;;;;;;;0.80;0.60;;;26.10;45.30;;;;;;4977273;28;20516;-72
2022/05/21 16:11:45;;;;;;;0.60;0.53;;;26.10;44.90;;;;;;4977547;28;20496;-72
2022/05/21 16:14:12;;;;;;;0.60;0.50;;;26.10;45.40;;;;;;4977322;28;20552;-72
2022/05/21 16:16:39;;;;;;;0.73;0.60;;;26.10;45.60;;;;;;4977516;28;20534;-72
2022/05/21 16:19:05;;;;;;;0.70;0.60;;;26.10;44.30;;;;;;4977398;28;20450;-72
2022/05/21 16:21:36;;;;;;;0.70;0.60;;;26.20;45.20;;;;;;4977334;28;20508;-72
2022/05/21 16:24:03;;;;;;;0.60;0.53;;;26.20;44.50;;;;;;4977465;28;20473;-72
2022/05/21 16:29:14;;;;;;;0.70;0.60;;;26.30;44.80;;;;;;4977341;28;20808;-72
2022/05/21 16:31:40;;;;;;;0.80;0.57;;;26.30;43.80;;;;;;4977143;28;20454;-73
2022/05/21 16:34:07;;;;;;;2.00;1.90;;;26.30;44.10;;;;;;4977258;28;20884;-72
2022/05/21 16:36:35;;;;;;;0.70;0.60;;;26.20;45.10;;;;;;4977065;28;20926;-73
2022/05/21 16:39:02;;;;;;;0.70;0.50;;;26.20;44.60;;;;;;4977165;28;20449;-72
2022/05/21 16:41:29;;;;;;;0.60;0.50;;;26.10;44.60;;;;;;4977047;28;20848;-73
2022/05/21 16:43:56;;;;;;;0.70;0.60;;;26.10;45.10;;;;;;4976637;28;20999;-73
2022/05/21 16:46:22;;;;;;;0.70;0.60;;;26.10;45.50;;;;;;4976634;28;20482;-72
2022/05/21 16:48:49;;;;;;;0.60;0.50;;;26.10;44.50;;;;;;4976596;28;21016;-72
2022/05/21 16:51:15;;;;;;;0.70;0.60;;;26.10;45.50;;;;;;4976816;28;20505;-72
2022/05/21 16:53:46;;;;;;;0.60;0.50;;;26.00;44.80;;;;;;4976825;28;20508;-72